Time;durP1;ratioP1;P1;durP2;ratioP2;P2;SDS_P1;SDS_P2;PMS_P1;PMS_P2;Temp;Humidity;BMP_temperature;BMP_pressure;BME280_temperature;BME280_humidity;BME280_pressure;Samples;Min_cycle;Max_cycle;Signal;HPM_P1;HPM_P2
2021/06/18 00:01:12;;;;;;;3.00;2.13;;;;;;;;;;4992837;28;20092;-92
2021/06/18 00:03:38;;;;;;;3.35;1.73;;;;;;;;;;4992366;28;20042;-91
2021/06/18 00:06:04;;;;;;;2.53;1.33;;;;;;;;;;4975011;28;20061;-92
2021/06/18 00:08:31;;;;;;;5.70;2.17;;;;;;;;;;4991419;28;20031;-92
2021/06/18 00:10:57;;;;;;;2.55;1.85;;;;;;;;;;4974074;28;20104;-91
2021/06/18 00:13:23;;;;;;;8.32;3.25;;;;;;;;;;4993043;28;20026;-91
2021/06/18 00:15:49;;;;;;;8.55;2.08;;;;;;;;;;4992752;28;20039;-91
2021/06/18 00:18:15;;;;;;;4.43;1.95;;;;;;;;;;4991916;28;20036;-93
2021/06/18 00:20:41;;;;;;;4.82;2.40;;;;;;;;;;4975167;28;20030;-90
2021/06/18 00:23:07;;;;;;;7.45;2.10;;;;;;;;;;4975121;28;20566;-91
2021/06/18 00:25:33;;;;;;;6.07;1.70;;;;;;;;;;4992675;28;20037;-91
2021/06/18 00:27:59;;;;;;;4.63;1.48;;;;;;;;;;4977861;28;20404;-91
2021/06/18 00:30:25;;;;;;;3.17;1.67;;;;;;;;;;4978689;28;20510;-92
2021/06/18 00:32:51;;;;;;;4.90;2.10;;;;;;;;;;4978520;28;20032;-91
2021/06/18 00:35:17;;;;;;;3.97;2.05;;;;;;;;;;4978873;28;20113;-93
2021/06/18 00:37:43;;;;;;;5.28;2.13;;;;;;;;;;4996671;28;20057;-92
2021/06/18 00:40:10;;;;;;;2.00;1.75;;;;;;;;;;5007332;28;20022;-90
2021/06/18 00:42:36;;;;;;;4.72;2.03;;;;;;;;;;5000655;28;20036;-91
2021/06/18 00:45:02;;;;;;;4.55;2.28;;;;;;;;;;4978891;28;20018;-91
2021/06/18 00:47:28;;;;;;;3.92;1.73;;;;;;;;;;4996119;28;20543;-91
2021/06/18 00:49:55;;;;;;;2.58;1.65;;;22.40;42.80;;;;;;4995753;28;20034;-92
2021/06/18 00:52:21;;;;;;;4.53;1.98;;;;;;;;;;4996164;28;20683;-90
2021/06/18 00:54:48;;;;;;;2.30;1.70;;;;;;;;;;4995309;28;20496;-91
2021/06/18 00:57:14;;;;;;;3.55;1.83;;;;;;;;;;4966971;28;20097;-90
2021/06/18 00:59:40;;;;;;;3.20;1.67;;;;;;;;;;4983782;28;20041;-91
2021/06/18 01:02:06;;;;;;;3.80;1.60;;;;;;;;;;4986542;28;20096;-90
2021/06/18 01:04:33;;;;;;;3.40;1.92;;;;;;;;;;4981535;28;20110;-90
2021/06/18 01:07:08;;;;;;;6.17;3.57;;;;;;;;;;4994145;28;20040;-91
2021/06/18 01:09:42;;;;;;;3.03;1.80;;;;;;;;;;4995291;28;20285;-91
2021/06/18 01:12:19;;;;;;;16.55;2.67;;;;;;;;;;4995328;28;20026;-92
2021/06/18 01:14:55;;;;;;;7.90;2.03;;;;;;;;;;4978027;28;20031;-90
2021/06/18 01:17:31;;;;;;;4.20;1.45;;;22.50;42.30;;;;;;4995206;28;20118;-90
2021/06/18 01:20:17;;;;;;;3.75;2.30;;;;;;;;;;4979654;28;20117;-91
2021/06/18 01:22:46;;;;;;;4.33;1.87;;;;;;;;;;4978979;28;20066;-91
2021/06/18 01:25:34;;;;;;;4.25;2.15;;;22.80;42.10;;;;;;4977958;28;20292;-92
2021/06/18 01:28:04;;;;;;;6.38;2.13;;;;;;;;;;4974247;28;20030;-93
2021/06/18 01:30:31;;;;;;;3.33;2.00;;;;;;;;;;4958613;28;20041;-91
2021/06/18 01:33:07;;;;;;;3.63;2.35;;;22.70;41.60;;;;;;4986025;28;20042;-92
2021/06/18 01:35:40;;;;;;;7.43;2.45;;;;;;;;;;4977743;28;20039;-91
2021/06/18 01:38:11;;;;;;;7.32;3.40;;;22.40;43.10;;;;;;4994737;28;20027;-90
2021/06/18 01:40:38;;;;;;;5.40;1.85;;;;;;;;;;4980436;28;20023;-91
2021/06/18 01:43:06;;;;;;;4.45;2.42;;;22.30;43.00;;;;;;4994240;28;20030;-91
2021/06/18 01:45:33;;;;;;;4.13;2.13;;;;;;;;;;4994651;28;20487;-92
2021/06/18 01:48:01;;;;;;;4.97;1.73;;;;;;;;;;4994550;28;20088;-90
2021/06/18 01:50:27;;;;;;;5.57;2.20;;;;;;;;;;4994865;28;20109;-92
2021/06/18 01:53:02;;;;;;;3.47;2.28;;;;;;;;;;4995359;28;20034;-91
2021/06/18 01:55:29;;;;;;;8.07;2.30;;;;;;;;;;4994141;28;20030;-91
2021/06/18 01:57:57;;;;;;;3.35;2.08;;;;;;;;;;4994597;28;20092;-90
2021/06/18 02:00:24;;;;;;;5.03;2.45;;;;;;;;;;4994609;28;20022;-92
2021/06/18 02:02:50;;;;;;;3.87;2.27;;;;;;;;;;4994271;28;20046;-91
2021/06/18 02:05:17;;;;;;;4.15;2.45;;;;;;;;;;4976941;28;20117;-93
2021/06/18 02:07:44;;;;;;;4.53;3.20;;;;;;;;;;4977144;28;20022;-91
2021/06/18 02:10:10;;;;;;;7.53;3.28;;;;;;;;;;4984639;28;20031;-92
2021/06/18 02:12:37;;;;;;;4.07;2.38;;;;;;;;;;4989676;28;20077;-91
2021/06/18 02:15:07;;;;;;;4.18;2.30;;;;;;;;;;4993995;28;20031;-92
2021/06/18 02:17:34;;;;;;;4.60;2.60;;;;;;;;;;4993945;28;20042;-92
2021/06/18 02:20:01;;;;;;;2.40;2.10;;;;;;;;;;4993010;28;20023;-90
2021/06/18 02:22:27;;;;;;;4.38;2.60;;;;;;;;;;4977211;28;20026;-91
2021/06/18 02:24:53;;;;;;;6.43;2.70;;;;;;;;;;4993771;28;20030;-90
2021/06/18 02:27:19;;;;;;;3.90;2.25;;;;;;;;;;4994857;28;20026;-92
2021/06/18 02:29:45;;;;;;;5.38;2.00;;;;;;;;;;4976556;28;20030;-92
2021/06/18 02:32:13;;;;;;;9.13;2.40;;;;;;;;;;4992656;28;20819;-91
2021/06/18 02:34:40;;;;;;;5.53;2.00;;;;;;;;;;4994601;28;20038;-91
2021/06/18 02:37:08;;;;;;;3.63;2.10;;;;;;;;;;4992644;28;20066;-91
2021/06/18 02:39:34;;;;;;;3.05;2.13;;;;;;;;;;4987057;28;20031;-90
2021/06/18 02:42:00;;;;;;;5.63;2.55;;;;;;;;;;4984987;28;20267;-93
2021/06/18 02:44:27;;;;;;;4.40;2.13;;;;;;;;;;4992478;28;20030;-92
2021/06/18 02:46:56;;;;;;;4.70;2.27;;;;;;;;;;4993803;28;20154;-90
2021/06/18 02:49:26;;;;;;;5.68;2.20;;;;;;;;;;4991461;28;20272;-91
2021/06/18 02:51:55;;;;;;;2.80;2.45;;;;;;;;;;4993447;28;20048;-91
2021/06/18 02:54:33;;;;;;;3.75;1.83;;;;;;;;;;4993931;28;20038;-89
2021/06/18 02:57:01;;;;;;;4.75;2.83;;;;;;;;;;4993361;28;20030;-90
2021/06/18 02:59:47;;;;;;;6.65;2.10;;;;;;;;;;4976127;28;20057;-90
2021/06/18 03:02:17;;;;;;;2.95;2.20;;;;;;;;;;4993666;28;20074;-90
2021/06/18 03:04:44;;;;;;;2.97;2.22;;;;;;;;;;4994097;28;20033;-91
2021/06/18 03:07:12;;;;;;;3.97;2.30;;;;;;;;;;4992919;28;20045;-92
2021/06/18 03:09:45;;;;;;;3.95;2.33;;;21.70;45.50;;;;;;4992385;28;20053;-91
2021/06/18 03:12:11;;;;;;;5.10;2.88;;;;;;;;;;4992906;28;20042;-90
2021/06/18 03:14:38;;;;;;;2.53;2.00;;;;;;;;;;4993381;28;20030;-91
2021/06/18 03:17:09;;;;;;;3.63;2.50;;;;;;;;;;4993355;28;20483;-90
2021/06/18 03:19:37;;;;;;;4.72;2.10;;;;;;;;;;4993664;28;20257;-90
2021/06/18 03:22:06;;;;;;;3.72;2.05;;;;;;;;;;4993678;28;20026;-90
2021/06/18 03:24:32;;;;;;;8.05;2.30;;;;;;;;;;4992970;28;20022;-92
2021/06/18 03:26:59;;;;;;;4.20;2.53;;;;;;;;;;4991362;28;20033;-91
2021/06/18 03:29:26;;;;;;;3.28;2.72;;;;;;;;;;4992696;28;20034;-91
2021/06/18 03:31:53;;;;;;;3.30;2.10;;;;;;;;;;4975549;28;20034;-92
2021/06/18 03:34:19;;;;;;;;;;;21.50;45.10;;;;;;4993702;28;20034;-90
2021/06/18 03:36:46;;;;;;;3.78;2.03;;;;;;;;;;4980326;28;19914;-90
2021/06/18 03:39:12;;;;;;;13.67;2.50;;;;;;;;;;4981547;28;20239;-91
2021/06/18 03:41:38;;;;;;;8.80;3.00;;;;;;;;;;4963722;28;20058;-90
2021/06/18 03:44:05;;;;;;;6.70;2.78;;;;;;;;;;4992559;28;20049;-91
2021/06/18 03:46:32;;;;;;;10.80;3.53;;;;;;;;;;4993092;28;20049;-91
2021/06/18 03:49:00;;;;;;;8.15;2.63;;;;;;;;;;4992381;28;20046;-92
2021/06/18 03:51:26;;;;;;;11.27;2.65;;;;;;;;;;4992461;28;20018;-93
2021/06/18 03:53:54;;;;;;;3.30;2.00;;;;;;;;;;4992701;28;20050;-92
2021/06/18 03:56:21;;;;;;;5.72;3.30;;;;;;;;;;4991058;28;20027;-91
2021/06/18 03:58:48;;;;;;;11.80;3.03;;;;;;;;;;4991130;28;20125;-91
2021/06/18 04:01:14;;;;;;;6.28;2.20;;;;;;;;;;4994163;28;20054;-92
2021/06/18 04:03:46;;;;;;;6.57;2.57;;;;;;;;;;4995988;28;20042;-90
2021/06/18 04:06:12;;;;;;;5.20;2.95;;;;;;;;;;4995360;28;20022;-91
2021/06/18 04:08:38;;;;;;;3.80;2.33;;;;;;;;;;4974084;28;20126;-92
2021/06/18 04:11:06;;;;;;;3.22;2.40;;;;;;;;;;4977796;28;20058;-91
2021/06/18 04:13:32;;;;;;;;;;;20.90;46.80;;;;;;4997251;28;20030;-90
2021/06/18 04:15:58;;;;;;;5.38;2.08;;;;;;;;;;4995286;28;20024;-91
2021/06/18 04:18:25;;;;;;;9.98;2.97;;;;;;;;;;4974185;28;20090;-91
2021/06/18 04:20:52;;;;;;;4.05;2.17;;;;;;;;;;4986053;28;20018;-89
2021/06/18 04:23:28;;;;;;;5.63;2.70;;;;;;;;;;4996334;28;20035;-92
2021/06/18 04:25:55;;;;;;;4.70;2.70;;;;;;;;;;4996276;28;20137;-90
2021/06/18 04:28:21;;;;;;;9.33;2.60;;;;;;;;;;4995939;28;20113;-92
2021/06/18 04:30:47;;;;;;;7.15;2.65;;;;;;;;;;4996132;28;20313;-91
2021/06/18 04:33:13;;;;;;;5.25;2.85;;;;;;;;;;4996184;28;20030;-91
2021/06/18 04:35:39;;;;;;;6.03;1.98;;;;;;;;;;4995490;28;20038;-90
2021/06/18 04:38:05;;;;;;;5.45;3.15;;;;;;;;;;4995723;28;20077;-91
2021/06/18 04:40:31;;;;;;;8.00;3.38;;;;;;;;;;4973918;28;20030;-89
2021/06/18 04:42:59;;;;;;;6.65;3.08;;;;;;;;;;4994728;28;20036;-90
2021/06/18 04:45:25;;;;;;;8.32;2.65;;;;;;;;;;4996109;28;20034;-90
2021/06/18 04:47:51;;;;;;;9.95;2.88;;;;;;;;;;4995790;28;20173;-90
2021/06/18 04:50:17;;;;;;;3.15;2.25;;;;;;;;;;4996263;28;20030;-91
2021/06/18 04:52:44;;;;;;;7.68;3.47;;;;;;;;;;4978405;28;20038;-91
2021/06/18 04:55:14;;;;;;;5.32;3.03;;;;;;;;;;4996328;28;20046;-90
2021/06/18 04:57:41;;;;;;;8.38;3.22;;;;;;;;;;4996032;28;20049;-91
2021/06/18 05:00:07;;;;;;;4.40;2.63;;;;;;;;;;4995437;28;20510;-90
2021/06/18 05:02:33;;;;;;;7.25;2.40;;;;;;;;;;4978417;28;20402;-91
2021/06/18 05:04:59;;;;;;;5.50;2.60;;;;;;;;;;4977481;28;20030;-91
2021/06/18 05:07:25;;;;;;;5.15;2.45;;;;;;;;;;4996003;28;20026;-90
2021/06/18 05:09:53;;;;;;;4.45;2.70;;;;;;;;;;4987224;28;20031;-91
2021/06/18 05:12:19;;;;;;;6.45;3.28;;;;;;;;;;4987983;28;20113;-92
2021/06/18 05:14:45;;;;;;;5.55;2.40;;;;;;;;;;4990421;28;20038;-91
2021/06/18 05:17:11;;;;;;;8.85;3.10;;;;;;;;;;4989195;28;20406;-92
2021/06/18 05:19:37;;;;;;;5.25;3.28;;;;;;;;;;4967050;28;20530;-90
2021/06/18 05:22:03;;;;;;;3.97;2.40;;;;;;;;;;4988157;28;20034;-77
2021/06/18 05:24:29;;;;;;;3.92;2.83;;;;;;;;;;4989281;28;20042;-77
2021/06/18 05:26:55;;;;;;;3.90;2.63;;;;;;;;;;4988783;28;20026;-77
2021/06/18 05:29:21;;;;;;;4.53;3.20;;;;;;;;;;4986762;28;20482;-77
2021/06/18 05:31:47;;;;;;;7.03;2.80;;;;;;;;;;4989195;28;20030;-77
2021/06/18 05:34:13;;;;;;;4.25;2.95;;;;;;;;;;4987312;28;20026;-77
2021/06/18 05:36:44;;;;;;;9.27;2.90;;;;;;;;;;4987751;28;20513;-77
2021/06/18 05:39:10;;;;;;;9.13;2.60;;;;;;;;;;4987879;28;20049;-77
2021/06/18 05:41:36;;;;;;;5.25;2.72;;;;;;;;;;4986871;28;20466;-77
2021/06/18 05:44:02;;;;;;;3.25;2.30;;;21.90;67.40;;;;;;4988767;28;20018;-77
2021/06/18 05:46:28;;;;;;;13.85;3.47;;;;;;;;;;4989861;28;20056;-75
2021/06/18 05:48:54;;;;;;;6.35;2.97;;;;;;;;;;4986989;28;20045;-78
2021/06/18 05:51:20;;;;;;;8.02;2.90;;;;;;;;;;4970580;28;20030;-78
2021/06/18 05:53:46;;;;;;;6.22;2.53;;;;;;;;;;4990711;28;20101;-78
2021/06/18 05:56:12;;;;;;;5.15;3.15;;;;;;;;;;4990117;28;20380;-78
2021/06/18 05:58:38;;;;;;;4.47;2.70;;;;;;;;;;4990546;28;20032;-77
2021/06/18 06:01:04;;;;;;;10.00;3.67;;;;;;;;;;4989980;28;20057;-77
2021/06/18 06:03:30;;;;;;;7.72;2.58;;;;;;;;;;4990238;28;20133;-78
2021/06/18 06:05:56;;;;;;;8.02;3.10;;;;;;;;;;4989553;28;20110;-77
2021/06/18 06:08:22;;;;;;;4.72;2.30;;;;;;;;;;4990286;28;20042;-77
2021/06/18 06:10:49;;;;;;;11.63;5.45;;;23.00;49.70;;;;;;4988965;28;20034;-78
2021/06/18 06:13:15;;;;;;;7.50;3.73;;;;;;;;;;4989200;28;20561;-77
2021/06/18 06:15:41;;;;;;;8.60;3.40;;;;;;;;;;4990537;28;20281;-78
2021/06/18 06:18:07;;;;;;;6.43;3.97;;;;;;;;;;4995311;28;20039;-77
2021/06/18 06:20:33;;;;;;;6.57;3.13;;;;;;;;;;4989160;28;20038;-77
2021/06/18 06:22:59;;;;;;;7.55;4.07;;;;;;;;;;4989636;28;20561;-77
2021/06/18 06:25:25;;;;;;;7.13;3.20;;;;;;;;;;4988412;28;20023;-78
2021/06/18 06:27:52;;;;;;;11.07;3.58;;;;;;;;;;4988889;28;20038;-77
2021/06/18 06:30:18;;;;;;;7.25;2.83;;;;;;;;;;4989098;28;20025;-77
2021/06/18 06:32:44;;;;;;;6.13;3.00;;;;;;;;;;4989716;28;20038;-77
2021/06/18 06:35:10;;;;;;;6.63;2.47;;;24.40;57.60;;;;;;4988993;28;20101;-77
2021/06/18 06:37:35;;;;;;;9.63;2.33;;;24.70;64.70;;;;;;4990214;28;20672;-76
2021/06/18 06:40:01;;;;;;;6.78;2.60;;;;;;;;;;4988580;28;20034;-76
2021/06/18 06:42:27;;;;;;;16.63;2.13;;;;;;;;;;4987010;28;20041;-76
2021/06/18 06:44:54;;;;;;;11.48;3.97;;;;;;;;;;4989066;28;20495;-76
2021/06/18 06:47:20;;;;;;;4.05;2.45;;;;;;;;;;4977584;28;20394;-76
2021/06/18 06:49:47;;;;;;;4.05;1.77;;;25.80;38.30;;;;;;4970696;28;20027;-76
2021/06/18 06:52:13;;;;;;;5.53;2.00;;;;;;;;;;4976462;28;20117;-77
2021/06/18 06:54:39;;;;;;;2.30;1.58;;;;;;;;;;4979482;28;20069;-76
2021/06/18 06:57:05;;;;;;;2.10;1.70;;;28.30;37.00;;;;;;4975295;28;20069;-77
2021/06/18 06:59:31;;;;;;;9.07;1.90;;;;;;;;;;4972131;28;20045;-77
2021/06/18 07:01:57;;;;;;;7.25;2.10;;;;;;;;;;4983738;28;20230;-75
2021/06/18 07:04:23;;;;;;;2.80;2.08;;;;;;;;;;4981742;28;20026;-77
2021/06/18 07:06:49;;;;;;;2.47;2.05;;;;;;;;;;4974760;28;20032;-77
2021/06/18 07:09:16;;;;;;;9.02;2.40;;;;;;;;;;4980054;28;20494;-76
2021/06/18 07:11:42;;;;;;;;;;;30.00;29.40;;;;;;4965131;28;20058;-77
2021/06/18 07:14:08;;;;;;;3.10;1.60;;;;;;;;;;4982917;28;20403;-76
2021/06/18 07:16:34;;;;;;;3.93;1.73;;;;;;;;;;4978878;28;20034;-77
2021/06/18 07:19:00;;;;;;;6.50;1.53;;;;;;;;;;4978055;28;21765;-76
2021/06/18 07:21:25;;;;;;;6.60;1.90;;;31.20;37.80;;;;;;4976694;28;20427;-76
2021/06/18 07:23:51;;;;;;;2.27;1.90;;;;;;;;;;4984995;28;20030;-77
2021/06/18 07:26:18;;;;;;;2.50;1.48;;;;;;;;;;4972282;28;20018;-77
2021/06/18 07:28:43;;;;;;;4.57;1.77;;;;;;;;;;4982107;28;20038;-77
2021/06/18 07:31:09;;;;;;;5.93;1.80;;;;;;;;;;4983945;28;20030;-76
2021/06/18 07:33:36;;;;;;;7.53;2.70;;;;;;;;;;4976301;28;20038;-77
2021/06/18 07:36:02;;;;;;;10.77;2.03;;;;;;;;;;4982289;28;20066;-76
2021/06/18 07:38:28;;;;;;;5.95;1.50;;;;;;;;;;4954375;28;20293;-76
2021/06/18 07:40:54;;;;;;;3.33;2.27;;;;;;;;;;4974931;28;20022;-76
2021/06/18 07:43:20;;;;;;;3.83;2.57;;;32.10;46.10;;;;;;4983171;28;20415;-76
2021/06/18 07:45:47;;;;;;;4.63;1.80;;;32.40;25.80;;;;;;4978840;28;20026;-90
2021/06/18 07:48:13;;;;;;;2.38;1.17;;;;;;;;;;4965434;28;20459;-89
2021/06/18 07:50:41;;;;;;;2.72;1.50;;;;;;;;;;4972721;28;20030;-90
2021/06/18 07:53:07;;;;;;;5.88;2.25;;;;;;;;;;4979375;28;20044;-88
2021/06/18 07:55:33;;;;;;;3.10;1.90;;;;;;;;;;4985910;28;20121;-90
2021/06/18 07:57:59;;;;;;;3.72;1.63;;;;;;;;;;4967795;28;20419;-88
2021/06/18 08:00:25;;;;;;;6.43;1.60;;;;;;;;;;4979863;28;20050;-88
2021/06/18 08:02:51;;;;;;;1.50;1.00;;;;;;;;;;4978307;28;20057;-90
2021/06/18 08:05:17;;;;;;;3.53;1.70;;;;;;;;;;4977909;28;20077;-91
2021/06/18 08:07:44;;;;;;;2.00;1.25;;;33.70;23.00;;;;;;4976159;28;20073;-90
2021/06/18 08:10:15;;;;;;;4.82;1.27;;;;;;;;;;4986297;28;20070;-87
2021/06/18 08:12:41;;;;;;;1.63;1.17;;;;;;;;;;4977942;28;20027;-88
2021/06/18 08:15:35;;;;;;;;;;;33.90;23.00;;;;;;4993601;28;20094;-96
2021/06/18 08:18:01;;;;;;;2.42;1.40;;;;;;;;;;4959437;28;19945;-88
2021/06/18 08:20:27;;;;;;;2.50;1.48;;;;;;;;;;4980575;28;20487;-87
2021/06/18 08:22:54;;;;;;;3.73;1.77;;;;;;;;;;4979793;28;20035;-88
2021/06/18 08:25:20;;;;;;;6.00;1.42;;;34.90;22.10;;;;;;4985770;28;20265;-88
2021/06/18 08:27:46;;;;;;;1.17;1.00;;;;;;;;;;4954188;28;20049;-88
2021/06/18 08:30:13;;;;;;;7.25;1.80;;;;;;;;;;4968649;28;20035;-88
2021/06/18 08:32:39;;;;;;;1.75;1.33;;;;;;;;;;4962283;28;20738;-87
2021/06/18 08:35:23;;;;;;;7.32;2.28;;;;;;;;;;4981401;28;20011;-93
2021/06/18 08:37:56;;;;;;;2.20;1.08;;;;;;;;;;4978518;28;20549;-90
2021/06/18 08:40:22;;;;;;;3.65;1.30;;;;;;;;;;4988245;28;20093;-87
2021/06/18 08:42:49;;;;;;;5.72;1.52;;;;;;;;;;4963105;28;20452;-86
2021/06/18 08:45:15;;;;;;;3.67;2.00;;;;;;;;;;4989212;28;20086;-95
2021/06/18 08:50:31;;;;;;;3.63;1.33;;;;;;;;;;5030837;23;20042;-96
2021/06/18 08:53:00;;;;;;;9.70;2.70;;;;;;;;;;4990700;28;20034;-96
2021/06/18 08:55:28;;;;;;;8.10;1.75;;;;;;;;;;4983534;28;20555;-89
2021/06/18 08:57:59;;;;;;;12.00;2.53;;;;;;;;;;4982053;28;20041;-88
2021/06/18 09:00:26;;;;;;;8.35;2.08;;;;;;;;;;4987766;28;20026;-87
2021/06/18 09:02:56;;;;;;;6.78;1.92;;;;;;;;;;4988038;28;20030;-92
2021/06/18 09:05:37;;;;;;;;;;;;;;;;;;;;;
2021/06/18 09:08:21;;;;;;;2.25;1.17;;;;;;;;;;4994075;28;20129;-95
2021/06/18 09:10:47;;;;;;;3.35;1.67;;;;;;;;;;4964470;28;20033;-95
2021/06/18 09:13:20;;;;;;;5.45;1.92;;;;;;;;;;4973281;28;20117;-94
2021/06/18 09:15:57;;;;;;;2.03;1.35;;;;;;;;;;4999186;28;20015;-94
2021/06/18 09:18:34;;;;;;;5.27;1.20;;;;;;;;;;4981574;28;20461;-93
2021/06/18 09:21:03;;;;;;;3.63;1.45;;;;;;;;;;4982493;28;20313;-87
2021/06/18 09:23:32;;;;;;;3.97;1.50;;;;;;;;;;4977749;28;20034;-87
2021/06/18 09:26:19;;;;;;;7.45;1.75;;;36.60;19.90;;;;;;4977333;28;20513;-87
2021/06/18 09:29:01;;;;;;;7.68;1.15;;;;;;;;;;4975525;28;20034;-87
2021/06/18 09:31:46;;;;;;;7.15;1.33;;;36.40;19.00;;;;;;4972015;28;20498;-86
2021/06/18 09:34:13;;;;;;;5.63;1.37;;;;;;;;;;4976923;28;20035;-86
2021/06/18 09:37:33;;;;;;;;;;;;;;;;;;;;;
2021/06/18 09:40:21;;;;;;;7.70;3.47;;;;;;;;;;4901818;29;20062;-90
2021/06/18 09:43:00;;;;;;;22.88;2.65;;;;;;;;;;4906169;29;20983;-91
2021/06/18 09:45:33;;;;;;;5.13;2.70;;;;;;;;;;4905047;29;20526;-88
2021/06/18 09:48:11;;;;;;;5.47;2.78;;;;;;;;;;4901535;29;20052;-88
2021/06/18 09:50:45;;;;;;;4.75;2.65;;;;;;;;;;4910359;29;20055;-87
2021/06/18 09:53:13;;;;;;;7.50;2.15;;;;;;;;;;4908135;29;20028;-90
2021/06/18 09:55:40;;;;;;;8.27;2.65;;;;;;;;;;4906855;29;20036;-90
2021/06/18 09:58:13;;;;;;;7.13;2.65;;;;;;;;;;4909599;29;20584;-89
2021/06/18 10:00:40;;;;;;;11.85;3.35;;;;;;;;;;4911735;29;20063;-91
2021/06/18 10:03:10;;;;;;;;;;;36.70;19.20;;;;;;4906684;29;20032;-87
2021/06/18 10:05:37;;;;;;;5.88;1.98;;;;;;;;;;4911087;29;19911;-89
2021/06/18 10:08:04;;;;;;;16.00;2.70;;;;;;;;;;4905022;29;20040;-88
2021/06/18 10:10:31;;;;;;;6.38;2.85;;;36.60;19.20;;;;;;4909622;29;20513;-88
2021/06/18 10:12:59;;;;;;;10.60;1.88;;;36.50;19.40;;;;;;4935987;23;20042;-86
2021/06/18 10:15:28;;;;;;;7.28;2.47;;;35.90;20.50;;;;;;4984547;28;20041;-87
2021/06/18 10:17:55;;;;;;;12.10;3.22;;;35.30;20.70;;;;;;4967001;28;20038;-86
2021/06/18 10:20:24;;;;;;;30.02;2.90;;;34.90;21.00;;;;;;4986550;28;20495;-87
2021/06/18 10:23:10;;;;;;;12.45;2.38;;;34.50;21.70;;;;;;4971086;28;20121;-86
2021/06/18 10:25:51;;;;;;;9.27;1.88;;;34.40;22.90;;;;;;4988807;28;20030;-87
2021/06/18 10:28:26;;;;;;;12.63;3.10;;;34.80;22.90;;;;;;4985299;28;20062;-86
2021/06/18 10:30:53;;;;;;;9.77;2.03;;;35.50;21.40;;;;;;4970671;28;20082;-86
2021/06/18 10:33:28;;;;;;;8.80;2.65;;;;;;;;;;4987604;28;20517;-87
2021/06/18 10:36:05;;;;;;;15.45;3.35;;;;;;;;;;4985165;28;20030;-87
2021/06/18 10:38:44;;;;;;;;;;;35.90;20.50;;;;;;4985554;28;20030;-85
2021/06/18 10:41:13;;;;;;;21.02;2.40;;;;;;;;;;4985145;28;19914;-86
2021/06/18 10:43:47;;;;;;;13.90;3.30;;;36.40;21.30;;;;;;4988944;28;20105;-87
2021/06/18 10:46:16;;;;;;;9.90;3.35;;;;;;;;;;4982365;28;20035;-86
2021/06/18 10:48:45;;;;;;;10.25;3.33;;;;;;;;;;4977200;28;20544;-87
2021/06/18 10:51:26;;;;;;;13.35;2.35;;;;;;;;;;4986521;28;20088;-87
2021/06/18 10:54:04;;;;;;;12.80;2.75;;;36.50;20.50;;;;;;4987053;28;20023;-86
2021/06/18 10:57:04;;;;;;;5.60;1.90;;;36.00;20.50;;;;;;4986993;28;20046;-87
2021/06/18 10:59:43;;;;;;;10.65;2.55;;;35.60;20.60;;;;;;4924053;29;20080;-87
2021/06/18 11:02:22;;;;;;;14.68;3.67;;;;;;;;;;4924868;29;20592;-86
2021/06/18 11:04:55;;;;;;;8.82;2.05;;;34.40;22.10;;;;;;4928220;29;20043;-86
2021/06/18 11:07:27;;;;;;;13.30;2.45;;;;;;;;;;4922415;29;20040;-86
2021/06/18 11:10:12;;;;;;;12.50;2.55;;;33.80;23.60;;;;;;4919964;29;20048;-87
2021/06/18 11:12:49;;;;;;;13.13;3.38;;;33.40;25.10;;;;;;4925986;29;20047;-86
2021/06/18 11:15:21;;;;;;;17.15;2.75;;;;;;;;;;4921569;29;20039;-86
2021/06/18 11:21:00;;;;;;;9.77;2.40;;;;;;;;;;4874482;29;20033;-86
2021/06/18 11:23:31;;;;;;;;;;;32.50;25.30;;;;;;4884922;29;20072;-87
2021/06/18 11:26:11;;;;;;;10.70;2.72;;;32.30;24.80;;;;;;4882084;29;20065;-86
2021/06/18 11:28:38;;;;;;;13.70;2.78;;;32.30;24.70;;;;;;4882944;29;20044;-86
2021/06/18 11:31:21;;;;;;;5.50;2.38;;;32.10;25.00;;;;;;4870204;29;20057;-86
2021/06/18 11:33:53;;;;;;;8.73;3.10;;;;;;;;;;4873159;29;20414;-86
2021/06/18 11:36:22;;;;;;;12.98;3.05;;;;;;;;;;4880344;29;20061;-85
2021/06/18 11:38:55;;;;;;;8.80;3.10;;;31.80;24.70;;;;;;4884200;29;20145;-86
2021/06/18 11:41:23;;;;;;;5.88;1.83;;;31.80;24.50;;;;;;4889572;29;20045;-86
2021/06/18 11:43:52;;;;;;;8.23;3.03;;;31.70;24.10;;;;;;4887658;29;20096;-86
2021/06/18 11:46:22;;;;;;;17.70;2.38;;;31.60;24.60;;;;;;4888853;29;20098;-86
2021/06/18 11:48:48;;;;;;;13.30;3.03;;;;;;;;;;4885017;29;20593;-87
2021/06/18 11:51:24;;;;;;;12.07;2.83;;;31.60;25.30;;;;;;4888461;29;20426;-85
2021/06/18 11:53:51;;;;;;;29.42;4.47;;;;;;;;;;4890519;29;20027;-87
2021/06/18 11:56:17;;;;;;;11.85;2.30;;;;;;;;;;4945151;28;20172;-85
2021/06/18 11:58:46;;;;;;;9.07;2.87;;;31.50;24.50;;;;;;4944721;28;20039;-86
2021/06/18 12:01:25;;;;;;;11.60;2.15;;;31.60;25.50;;;;;;4946959;29;20047;-84
2021/06/18 12:03:56;;;;;;;12.60;2.75;;;31.60;26.00;;;;;;4947144;28;20504;-87
2021/06/18 12:06:24;;;;;;;9.25;2.40;;;31.60;24.30;;;;;;4945206;28;20031;-85
2021/06/18 12:09:00;;;;;;;19.20;3.10;;;30.70;23.90;;;;;;4937597;28;20028;-87
2021/06/18 12:11:30;;;;;;;7.82;2.45;;;31.30;24.60;;;;;;4949570;29;20035;-88
2021/06/18 12:13:56;;;;;;;16.05;2.65;;;;;;;;;;4969860;28;20062;-88
2021/06/18 12:16:30;;;;;;;14.17;2.90;;;31.20;26.20;;;;;;4983085;28;20622;-87
2021/06/18 12:18:57;;;;;;;20.17;2.65;;;;;;;;;;4985120;28;20301;-93
2021/06/18 12:21:24;;;;;;;13.45;2.80;;;;;;;;;;4988952;28;20015;-87
2021/06/18 12:24:02;;;;;;;;;;;31.10;27.30;;;;;;4984423;28;20554;-87
2021/06/18 12:26:28;;;;;;;6.63;2.40;;;;;;;;;;4987519;28;19909;-88
2021/06/18 12:28:55;;;;;;;17.03;2.80;;;30.90;25.00;;;;;;4969103;28;20114;-87
2021/06/18 12:31:21;;;;;;;5.63;2.13;;;;;;;;;;4988024;28;20035;-88
2021/06/18 12:33:47;;;;;;;16.83;2.63;;;;;;;;;;4988607;28;20030;-87
2021/06/18 12:36:17;;;;;;;6.40;2.13;;;;;;;;;;4989912;28;20279;-87
2021/06/18 12:38:46;;;;;;;6.05;1.50;;;;;;;;;;4989373;28;20104;-91
2021/06/18 12:41:28;;;;;;;12.30;2.30;;;;;;;;;;4989676;28;20057;-92
2021/06/18 12:44:04;;;;;;;11.45;2.67;;;;;;;;;;4994473;28;20057;-95
2021/06/18 12:46:30;;;;;;;7.70;1.65;;;;;;;;;;4995165;28;20034;-93
2021/06/18 12:49:07;;;;;;;11.65;2.08;;;;;;;;;;4993800;28;20550;-94
2021/06/18 12:51:34;;;;;;;8.75;3.63;;;;;;;;;;4996955;28;20026;-93
2021/06/18 12:54:10;;;;;;;4.47;2.60;;;;;;;;;;4977997;28;20018;-95
2021/06/18 12:56:41;;;;;;;16.42;2.92;;;;;;;;;;4978048;28;20050;-93
2021/06/18 12:59:16;;;;;;;10.60;2.65;;;;;;;;;;4981814;28;20073;-94
2021/06/18 13:01:44;;;;;;;4.45;2.55;;;;;;;;;;4996006;28;20120;-92
2021/06/18 13:04:11;;;;;;;17.48;3.28;;;;;;;;;;4976056;28;20030;-89
2021/06/18 13:06:49;;;;;;;23.88;2.10;;;31.00;25.50;;;;;;4990182;28;20038;-88
2021/06/18 13:09:15;;;;;;;8.95;2.22;;;;;;;;;;4988856;28;20031;-87
2021/06/18 13:11:51;;;;;;;7.57;2.33;;;30.80;25.20;;;;;;4988225;28;20507;-87
2021/06/18 13:14:19;;;;;;;10.80;2.65;;;30.80;25.60;;;;;;4991719;28;20054;-89
2021/06/18 13:16:48;;;;;;;5.82;2.00;;;30.50;23.90;;;;;;4968729;28;20058;-86
2021/06/18 13:19:16;;;;;;;10.82;1.45;;;30.60;24.30;;;;;;4985389;28;20058;-90
2021/06/18 13:21:42;;;;;;;5.60;2.58;;;;;;;;;;4968873;28;20038;-89
2021/06/18 13:24:33;;;;;;;11.15;2.78;;;30.60;25.10;;;;;;4993355;28;20032;-88
2021/06/18 13:27:07;;;;;;;10.20;3.03;;;;;;;;;;4985175;28;20040;-93
2021/06/18 13:30:02;;;;;;;10.45;2.05;;;30.40;24.70;;;;;;4986443;28;20034;-91
2021/06/18 13:32:31;;;;;;;11.05;1.65;;;;;;;;;;4992576;28;20038;-88
2021/06/18 13:35:08;;;;;;;8.57;3.45;;;;;;;;;;4992564;28;20479;-90
2021/06/18 13:37:34;;;;;;;10.35;2.28;;;;;;;;;;4990034;28;20133;-91
2021/06/18 13:40:18;;;;;;;3.90;2.17;;;;;;;;;;4990814;28;20030;-90
2021/06/18 13:42:44;;;;;;;9.27;3.67;;;;;;;;;;4978654;28;20121;-86
2021/06/18 13:45:11;;;;;;;8.48;2.13;;;;;;;;;;4988071;28;20037;-87
2021/06/18 13:47:37;;;;;;;3.07;2.03;;;;;;;;;;4985711;28;20030;-87
2021/06/18 13:50:08;;;;;;;9.77;2.90;;;30.30;25.60;;;;;;4987928;28;20027;-85
2021/06/18 13:52:34;;;;;;;13.38;2.10;;;;;;;;;;4992306;28;20063;-92
2021/06/18 13:55:01;;;;;;;4.38;2.17;;;;;;;;;;4991518;28;20038;-88
2021/06/18 13:57:27;;;;;;;5.57;1.80;;;;;;;;;;4985213;28;20157;-92
2021/06/18 13:59:53;;;;;;;4.68;2.50;;;;;;;;;;4986623;28;20027;-86
2021/06/18 14:02:19;;;;;;;16.95;2.38;;;;;;;;;;4984971;28;20413;-84
2021/06/18 14:04:46;;;;;;;7.10;2.50;;;;;;;;;;4971964;28;20039;-89
2021/06/18 14:07:13;;;;;;;4.70;1.85;;;30.00;26.50;;;;;;4985821;28;20045;-86
2021/06/18 14:09:39;;;;;;;8.90;2.45;;;;;;;;;;4987599;28;20045;-89
2021/06/18 14:12:06;;;;;;;4.32;1.83;;;;;;;;;;4986204;28;20058;-91
2021/06/18 14:14:39;;;;;;;4.82;1.73;;;;;;;;;;4968697;28;20034;-91
2021/06/18 14:17:05;;;;;;;8.07;2.47;;;;;;;;;;4986358;28;20057;-89
2021/06/18 14:19:31;;;;;;;5.65;2.00;;;;;;;;;;4986776;28;20084;-86
2021/06/18 14:21:57;;;;;;;5.43;2.25;;;;;;;;;;4969331;28;20042;-93
2021/06/18 14:24:23;;;;;;;2.92;1.88;;;;;;;;;;4977383;28;20019;-91
2021/06/18 14:26:49;;;;;;;14.80;2.75;;;;;;;;;;4987691;28;20435;-94
2021/06/18 14:29:15;;;;;;;7.47;2.17;;;;;;;;;;4984991;28;20054;-89
2021/06/18 14:31:41;;;;;;;6.18;1.98;;;;;;;;;;4992176;28;20027;-91
2021/06/18 14:34:07;;;;;;;15.95;2.75;;;;;;;;;;4990709;28;20026;-89
2021/06/18 14:36:34;;;;;;;9.27;2.05;;;;;;;;;;4961822;28;20039;-90